createdAt,value
2022-11-27T00:00:37.312Z,42.50
2022-11-27T00:03:03.885Z,41.90
2022-11-27T00:05:30.464Z,42.30
2022-11-27T00:07:56.945Z,41.90
2022-11-27T00:10:23.403Z,42.30
2022-11-27T00:12:49.818Z,42.40
2022-11-27T00:15:17.451Z,42.50
2022-11-27T00:17:43.968Z,42.50
2022-11-27T00:20:10.420Z,42.30
2022-11-27T00:22:36.843Z,42.70
2022-11-27T00:25:03.268Z,42.00
2022-11-27T00:27:29.694Z,42.70
2022-11-27T00:29:56.111Z,42.70
2022-11-27T00:32:22.558Z,42.70
2022-11-27T00:34:49.018Z,42.80
2022-11-27T00:37:15.461Z,42.70
2022-11-27T00:39:41.902Z,42.70
2022-11-27T00:42:08.323Z,43.30
2022-11-27T00:44:34.746Z,42.20
2022-11-27T00:47:01.272Z,42.10
2022-11-27T00:49:27.815Z,42.60
2022-11-27T00:51:54.230Z,42.60
2022-11-27T00:54:22.775Z,42.50
2022-11-27T00:56:49.414Z,42.40
2022-11-27T00:59:15.843Z,42.50
2022-11-27T01:01:42.429Z,42.40
2022-11-27T01:04:08.890Z,42.40
2022-11-27T01:06:35.310Z,42.40
2022-11-27T01:09:01.732Z,42.40
2022-11-27T01:11:28.172Z,42.40
2022-11-27T01:13:54.594Z,41.80
2022-11-27T01:16:21.136Z,42.30
2022-11-27T01:18:47.619Z,42.20
2022-11-27T01:21:14.070Z,42.20
2022-11-27T01:23:40.553Z,42.20
2022-11-27T01:26:07.014Z,42.40
2022-11-27T01:28:33.492Z,41.60
2022-11-27T01:30:59.994Z,42.20
2022-11-27T01:33:26.612Z,41.70
2022-11-27T01:35:53.077Z,42.20
2022-11-27T01:38:19.542Z,41.80
2022-11-27T01:40:45.971Z,42.20
2022-11-27T01:43:12.420Z,41.50
2022-11-27T01:45:38.872Z,42.00
2022-11-27T01:48:05.371Z,42.00
2022-11-27T01:50:31.848Z,42.00
2022-11-27T01:52:58.323Z,41.90
2022-11-27T01:55:24.794Z,41.90
2022-11-27T01:57:51.228Z,42.10
2022-11-27T02:00:17.720Z,42.00
2022-11-27T02:02:44.231Z,41.90
2022-11-27T02:05:10.727Z,41.40
2022-11-27T02:07:37.214Z,41.90
2022-11-27T02:10:03.743Z,42.00
2022-11-27T02:12:30.216Z,42.10
2022-11-27T02:14:56.684Z,42.00
2022-11-27T02:17:23.155Z,42.00
2022-11-27T02:19:49.590Z,41.50
2022-11-27T02:22:16.023Z,41.80
2022-11-27T02:24:42.765Z,41.40
2022-11-27T02:27:09.385Z,41.90
2022-11-27T02:29:35.825Z,42.00
2022-11-27T02:32:02.234Z,41.40
2022-11-27T02:34:28.730Z,41.90
2022-11-27T02:36:55.204Z,41.90
2022-11-27T02:39:21.701Z,41.70
2022-11-27T02:41:48.143Z,41.90
2022-11-27T02:44:14.567Z,41.90
2022-11-27T02:46:41.156Z,41.30
2022-11-27T02:49:07.669Z,41.70
2022-11-27T02:51:34.091Z,41.60
2022-11-27T02:54:00.553Z,41.10
2022-11-27T02:56:27.038Z,41.60
2022-11-27T02:58:53.613Z,41.50
2022-11-27T03:01:20.162Z,41.60
2022-11-27T03:03:46.615Z,41.50
2022-11-27T03:06:13.072Z,41.50
2022-11-27T03:08:39.545Z,41.10
2022-11-27T03:11:05.966Z,41.60
2022-11-27T03:13:32.453Z,41.00
2022-11-27T03:15:58.957Z,41.60
2022-11-27T03:18:25.456Z,41.60
2022-11-27T03:20:51.887Z,41.40
2022-11-27T03:23:18.322Z,41.30
2022-11-27T03:25:44.735Z,41.60
2022-11-27T03:28:11.152Z,41.60
2022-11-27T03:30:37.628Z,41.50
2022-11-27T03:33:04.109Z,41.00
2022-11-27T03:35:30.589Z,41.50
2022-11-27T03:37:57.040Z,41.50
2022-11-27T03:40:23.491Z,41.80
2022-11-27T03:42:49.949Z,41.70
2022-11-27T03:45:16.417Z,41.70
2022-11-27T03:47:42.939Z,42.00
2022-11-27T03:50:09.447Z,42.00
2022-11-27T03:52:35.942Z,41.90
2022-11-27T03:55:02.370Z,41.20
2022-11-27T03:57:28.838Z,42.00
2022-11-27T03:59:55.304Z,41.70
2022-11-27T04:02:21.780Z,41.80
2022-11-27T04:04:48.295Z,41.70
2022-11-27T04:07:14.803Z,41.50
2022-11-27T04:09:41.290Z,41.60
2022-11-27T04:12:07.750Z,41.40
2022-11-27T04:14:34.217Z,41.00
2022-11-27T04:17:00.646Z,41.50
2022-11-27T04:19:27.116Z,41.60
2022-11-27T04:21:53.598Z,41.00
2022-11-27T04:24:20.070Z,41.50
2022-11-27T04:26:46.556Z,41.40
2022-11-27T04:29:12.978Z,41.40
2022-11-27T04:31:39.535Z,41.40
2022-11-27T04:34:06.060Z,41.30
2022-11-27T04:36:37.562Z,41.30
2022-11-27T04:39:05.567Z,41.40
2022-11-27T04:41:31.987Z,41.20
2022-11-27T04:43:58.407Z,40.50
2022-11-27T04:46:24.943Z,41.10
2022-11-27T04:48:51.439Z,41.20
2022-11-27T04:51:17.905Z,40.40
2022-11-27T04:53:44.383Z,41.20
2022-11-27T04:56:10.840Z,40.90
2022-11-27T04:58:37.275Z,41.00
2022-11-27T05:01:03.743Z,41.00
2022-11-27T05:03:30.265Z,40.30
2022-11-27T05:05:56.703Z,40.90
2022-11-27T05:08:23.182Z,41.00
2022-11-27T05:10:49.619Z,40.80
2022-11-27T05:13:16.048Z,40.40
2022-11-27T05:15:42.502Z,40.90
2022-11-27T05:18:08.926Z,40.30
2022-11-27T05:20:35.343Z,40.80
2022-11-27T05:23:01.813Z,40.30
2022-11-27T05:25:28.259Z,40.80
2022-11-27T05:27:54.727Z,40.80
2022-11-27T05:30:21.213Z,40.80
2022-11-27T05:32:47.661Z,40.90
2022-11-27T05:35:14.144Z,40.70
2022-11-27T05:37:40.600Z,40.70
2022-11-27T05:40:07.020Z,40.60
2022-11-27T05:42:33.512Z,40.70
2022-11-27T05:44:59.969Z,40.60
2022-11-27T05:47:26.432Z,40.60
2022-11-27T05:49:52.878Z,40.70
2022-11-27T05:52:19.369Z,40.70
2022-11-27T05:54:45.830Z,40.60
2022-11-27T05:57:12.255Z,40.50
2022-11-27T05:59:38.731Z,39.90
2022-11-27T06:02:05.265Z,40.50
2022-11-27T06:04:31.797Z,40.60
2022-11-27T06:06:58.225Z,40.60
2022-11-27T06:09:24.690Z,40.10
2022-11-27T06:11:51.150Z,40.00
2022-11-27T06:14:17.642Z,40.60
2022-11-27T06:16:44.203Z,40.00
2022-11-27T06:19:10.709Z,40.00
2022-11-27T06:21:37.216Z,40.00
2022-11-27T06:24:03.651Z,39.90
2022-11-27T06:26:30.095Z,40.40
2022-11-27T06:28:56.550Z,40.00
2022-11-27T06:31:23.040Z,40.50
2022-11-27T06:33:49.540Z,40.30
2022-11-27T06:36:16.012Z,40.50
2022-11-27T06:38:42.450Z,40.00
2022-11-27T06:41:08.909Z,40.40
2022-11-27T06:43:35.406Z,40.60
2022-11-27T06:46:01.877Z,40.40
2022-11-27T06:48:28.381Z,40.00
2022-11-27T06:50:54.820Z,40.60
2022-11-27T06:53:21.271Z,40.60
2022-11-27T06:55:47.694Z,40.60
2022-11-27T06:58:14.132Z,40.00
2022-11-27T07:00:40.650Z,40.50
2022-11-27T07:03:07.094Z,40.60
2022-11-27T07:05:33.557Z,40.50
2022-11-27T07:08:00.111Z,40.80
2022-11-27T07:10:26.628Z,40.80
2022-11-27T07:12:53.110Z,40.80
2022-11-27T07:15:19.580Z,40.40
2022-11-27T07:17:46.026Z,40.90
2022-11-27T07:20:12.564Z,41.50
2022-11-27T07:22:38.985Z,40.80
2022-11-27T07:25:05.411Z,40.80
2022-11-27T07:27:31.869Z,40.40
2022-11-27T07:29:58.309Z,40.80
2022-11-27T07:34:51.712Z,40.50
2022-11-27T07:37:18.142Z,41.00
2022-11-27T07:40:01.945Z,41.20
2022-11-27T07:42:44.480Z,41.20
2022-11-27T07:45:10.932Z,41.20
2022-11-27T07:47:37.350Z,41.30
2022-11-27T07:50:03.769Z,40.70
2022-11-27T07:52:30.227Z,41.30
2022-11-27T07:54:56.703Z,41.50
2022-11-27T07:57:23.179Z,41.70
2022-11-27T07:59:49.648Z,41.30
2022-11-27T08:02:16.111Z,41.80
2022-11-27T08:04:42.888Z,41.90
2022-11-27T08:07:09.699Z,41.40
2022-11-27T08:09:36.141Z,41.70
2022-11-27T08:12:02.603Z,41.50
2022-11-27T08:14:29.044Z,41.50
2022-11-27T08:16:55.587Z,41.50
2022-11-27T08:19:22.080Z,41.40
2022-11-27T08:21:48.512Z,41.50
2022-11-27T08:24:14.978Z,41.10
2022-11-27T08:26:41.470Z,41.70
2022-11-27T08:29:07.926Z,41.80
2022-11-27T08:31:34.406Z,41.10
2022-11-27T08:34:00.871Z,41.80
2022-11-27T08:36:27.321Z,41.90
2022-11-27T08:38:53.786Z,41.40
2022-11-27T08:41:20.254Z,41.80
2022-11-27T08:43:46.689Z,41.80
2022-11-27T08:46:13.268Z,41.60
2022-11-27T08:48:39.796Z,42.00
2022-11-27T08:51:06.237Z,41.30
2022-11-27T08:53:32.691Z,41.80
2022-11-27T08:55:59.181Z,41.90
2022-11-27T08:58:25.627Z,42.10
2022-11-27T09:00:52.102Z,41.60
2022-11-27T09:03:18.675Z,42.00
2022-11-27T09:05:45.120Z,41.90
2022-11-27T09:08:11.570Z,41.10
2022-11-27T09:10:38.088Z,41.60
2022-11-27T09:13:04.560Z,41.70
2022-11-27T09:15:31.058Z,41.20
2022-11-27T09:17:57.556Z,41.60
2022-11-27T09:20:23.983Z,41.70
2022-11-27T09:22:50.457Z,41.20
2022-11-27T09:25:16.908Z,41.80
2022-11-27T09:27:43.360Z,41.50
2022-11-27T09:30:09.835Z,41.20
2022-11-27T09:32:36.293Z,41.70
2022-11-27T09:35:02.762Z,41.70
2022-11-27T09:37:29.309Z,41.20
2022-11-27T09:39:55.789Z,41.40
2022-11-27T09:42:22.242Z,41.80
2022-11-27T09:44:48.664Z,41.70
2022-11-27T09:47:15.101Z,41.60
2022-11-27T09:49:41.578Z,41.50
2022-11-27T09:52:08.054Z,41.40
2022-11-27T09:54:34.528Z,41.60
2022-11-27T09:57:00.973Z,41.00
2022-11-27T09:59:27.450Z,41.30
2022-11-27T10:01:54.029Z,41.70
2022-11-27T10:04:20.652Z,41.10
2022-11-27T10:06:47.124Z,41.60
2022-11-27T10:09:13.554Z,41.10
2022-11-27T10:11:40.031Z,41.60
2022-11-27T10:14:09.001Z,41.50
2022-11-27T10:16:38.008Z,41.50
2022-11-27T10:19:06.608Z,41.60
2022-11-27T10:21:33.067Z,42.50
2022-11-27T10:23:59.538Z,42.10
2022-11-27T10:26:25.999Z,42.30
2022-11-27T10:28:52.426Z,41.60
2022-11-27T10:31:18.925Z,42.30
2022-11-27T10:33:45.404Z,41.90
2022-11-27T10:36:11.897Z,42.30
2022-11-27T10:38:38.346Z,41.80
2022-11-27T10:41:04.821Z,42.20
2022-11-27T10:43:31.251Z,42.20
2022-11-27T10:45:57.767Z,42.20
2022-11-27T10:48:24.283Z,42.00
2022-11-27T10:50:50.754Z,42.50
2022-11-27T10:53:17.238Z,42.20
2022-11-27T10:55:43.674Z,42.70
2022-11-27T10:58:10.153Z,42.70
2022-11-27T11:00:36.575Z,42.20
2022-11-27T11:03:03.021Z,42.70
2022-11-27T11:08:15.913Z,42.60
2022-11-27T11:10:42.376Z,42.10
2022-11-27T11:13:08.798Z,41.90
2022-11-27T11:15:35.270Z,42.40
2022-11-27T11:18:01.734Z,42.40
2022-11-27T11:20:28.190Z,41.80
2022-11-27T11:22:54.651Z,42.20
2022-11-27T11:25:21.079Z,41.40
2022-11-27T11:27:47.490Z,42.20
2022-11-27T11:30:13.919Z,42.10
2022-11-27T11:32:40.338Z,42.00
2022-11-27T11:35:06.811Z,41.80
2022-11-27T11:37:33.286Z,40.80
2022-11-27T11:39:59.786Z,41.50
2022-11-27T11:42:26.274Z,40.90
2022-11-27T11:44:52.702Z,42.10
2022-11-27T11:47:19.254Z,42.20
2022-11-27T11:49:45.685Z,41.70
2022-11-27T11:52:12.146Z,42.20
2022-11-27T11:54:38.970Z,42.30
2022-11-27T11:57:05.578Z,42.20
2022-11-27T11:59:32.007Z,41.60
2022-11-27T12:01:58.524Z,42.40
2022-11-27T12:04:25.050Z,43.10
2022-11-27T12:06:51.625Z,42.90
2022-11-27T12:09:18.066Z,42.90
2022-11-27T12:11:44.515Z,42.80
2022-11-27T12:14:10.958Z,42.80
2022-11-27T12:16:37.495Z,42.50
2022-11-27T12:19:04.056Z,42.70
2022-11-27T12:21:30.478Z,42.50
2022-11-27T12:23:56.968Z,42.90
2022-11-27T12:26:23.465Z,42.50
2022-11-27T12:28:54.477Z,44.20
2022-11-27T12:31:24.121Z,43.90
2022-11-27T12:33:50.609Z,43.40
2022-11-27T12:36:17.054Z,43.80
2022-11-27T12:38:43.555Z,43.20
2022-11-27T12:41:09.986Z,43.90
2022-11-27T12:43:36.432Z,43.30
2022-11-27T12:46:02.926Z,43.90
2022-11-27T12:48:29.418Z,43.10
2022-11-27T12:50:55.892Z,43.40
2022-11-27T12:53:24.974Z,43.90
2022-11-27T12:55:51.646Z,44.40
2022-11-27T12:58:18.067Z,44.10
2022-11-27T13:00:44.559Z,44.00
2022-11-27T13:03:11.003Z,44.50
2022-11-27T13:05:37.462Z,44.10
2022-11-27T13:08:04.009Z,44.20
2022-11-27T13:10:30.466Z,44.20
2022-11-27T13:12:56.899Z,43.90
2022-11-27T13:15:23.404Z,44.20
2022-11-27T13:17:49.877Z,43.70
2022-11-27T13:20:16.340Z,44.20
2022-11-27T13:22:42.910Z,43.50
2022-11-27T13:25:09.410Z,44.10
2022-11-27T13:27:35.909Z,43.50
2022-11-27T13:30:02.385Z,43.30
2022-11-27T13:32:28.849Z,44.00
2022-11-27T13:34:55.269Z,43.90
2022-11-27T13:37:21.710Z,43.80
2022-11-27T13:39:48.176Z,43.80
2022-11-27T13:42:14.602Z,43.70
2022-11-27T13:44:41.373Z,43.50
2022-11-27T13:47:08.099Z,43.60
2022-11-27T13:49:34.533Z,43.00
2022-11-27T13:52:00.996Z,43.50
2022-11-27T13:54:29.150Z,42.80
2022-11-27T13:56:55.850Z,43.50
2022-11-27T13:59:22.339Z,42.90
2022-11-27T14:01:48.792Z,42.70
2022-11-27T14:04:15.298Z,43.50
2022-11-27T14:06:41.775Z,42.60
2022-11-27T14:09:08.257Z,43.30
2022-11-27T14:11:34.690Z,43.30
2022-11-27T14:14:01.135Z,43.20
2022-11-27T14:16:27.699Z,42.60
2022-11-27T14:18:54.216Z,42.70
2022-11-27T14:21:20.654Z,43.20
2022-11-27T14:23:47.082Z,43.20
2022-11-27T14:26:15.156Z,43.20
2022-11-27T14:31:09.221Z,43.20
2022-11-27T14:33:59.598Z,43.70
2022-11-27T14:36:22.137Z,43.00
2022-11-27T14:38:48.613Z,42.20
2022-11-27T14:41:15.048Z,43.00
2022-11-27T14:43:41.486Z,43.00
2022-11-27T14:46:08.115Z,42.90
2022-11-27T14:48:34.602Z,43.00
2022-11-27T14:51:01.026Z,42.50
2022-11-27T14:53:27.469Z,42.90
2022-11-27T14:55:53.892Z,42.60
2022-11-27T14:58:20.354Z,42.90
2022-11-27T15:00:46.798Z,42.90
2022-11-27T15:03:13.390Z,42.90
2022-11-27T15:05:39.936Z,42.90
2022-11-27T15:08:06.460Z,42.90
2022-11-27T15:10:33.029Z,42.90
2022-11-27T15:12:59.511Z,42.90
2022-11-27T15:15:25.979Z,42.80
2022-11-27T15:17:52.511Z,42.80
2022-11-27T15:20:19.004Z,42.30
2022-11-27T15:22:45.474Z,42.70
2022-11-27T15:25:11.927Z,42.90
2022-11-27T15:27:38.450Z,41.80
2022-11-27T15:30:05.113Z,42.00
2022-11-27T15:32:31.670Z,42.50
2022-11-27T15:34:58.129Z,42.40
2022-11-27T15:37:24.555Z,42.40
2022-11-27T15:39:50.986Z,42.00
2022-11-27T15:42:17.467Z,42.30
2022-11-27T15:44:44.133Z,42.50
2022-11-27T15:47:10.796Z,42.50
2022-11-27T15:49:37.259Z,42.10
2022-11-27T15:52:03.718Z,42.80
2022-11-27T15:54:30.184Z,42.20
2022-11-27T15:56:56.640Z,42.70
2022-11-27T15:59:23.084Z,42.10
2022-11-27T16:01:49.900Z,42.70
2022-11-27T16:04:16.425Z,42.60
2022-11-27T16:06:42.875Z,42.70
2022-11-27T16:09:09.392Z,42.30
2022-11-27T16:11:35.824Z,42.80
2022-11-27T16:14:02.299Z,42.90
2022-11-27T16:16:28.863Z,42.40
2022-11-27T16:18:55.417Z,42.30
2022-11-27T16:21:27.980Z,42.80
2022-11-27T16:23:55.845Z,42.30
2022-11-27T16:26:22.391Z,42.80
2022-11-27T16:28:48.882Z,42.20
2022-11-27T16:31:15.449Z,42.70
2022-11-27T16:33:41.932Z,42.90
2022-11-27T16:36:08.410Z,42.80
2022-11-27T16:38:34.886Z,42.00
2022-11-27T16:41:01.372Z,42.80
2022-11-27T16:43:27.887Z,42.80
2022-11-27T16:45:54.454Z,42.70
2022-11-27T16:48:20.985Z,42.80
2022-11-27T16:50:47.446Z,42.50
2022-11-27T16:53:13.947Z,42.60
2022-11-27T16:55:40.378Z,42.80
2022-11-27T16:58:06.802Z,42.20
2022-11-27T17:00:33.302Z,42.70
2022-11-27T17:02:59.769Z,42.70
2022-11-27T17:05:26.321Z,42.20
2022-11-27T17:07:53.005Z,42.20
2022-11-27T17:10:19.686Z,42.70
2022-11-27T17:12:46.171Z,42.20
2022-11-27T17:15:12.627Z,42.70
2022-11-27T17:17:40.221Z,42.60
2022-11-27T17:20:06.988Z,42.10
2022-11-27T17:25:00.634Z,42.20
2022-11-27T17:27:27.088Z,42.60
2022-11-27T17:29:53.560Z,42.00
2022-11-27T17:32:20.002Z,42.50
2022-11-27T17:34:46.448Z,42.00
2022-11-27T17:37:12.917Z,42.10
2022-11-27T17:39:39.581Z,42.20
2022-11-27T17:42:11.499Z,42.70
2022-11-27T17:44:39.786Z,42.70
2022-11-27T17:47:06.267Z,42.60
2022-11-27T17:49:32.702Z,42.10
2022-11-27T17:52:04.714Z,42.70
2022-11-27T17:54:32.738Z,42.20
2022-11-27T17:56:59.227Z,42.70
2022-11-27T17:59:25.689Z,42.10
2022-11-27T18:01:52.154Z,42.30
2022-11-27T18:04:18.608Z,42.10
2022-11-27T18:06:45.090Z,42.70
2022-11-27T18:09:11.577Z,42.60
2022-11-27T18:11:38.037Z,42.70
2022-11-27T18:14:04.496Z,42.70
2022-11-27T18:16:31.035Z,42.70
2022-11-27T18:18:57.548Z,42.20
2022-11-27T18:21:23.977Z,42.10
2022-11-27T18:24:21.426Z,42.60
2022-11-27T18:27:06.466Z,42.00
2022-11-27T18:29:23.211Z,41.90
2022-11-27T18:31:49.920Z,42.50
2022-11-27T18:34:16.500Z,42.70
2022-11-27T18:36:42.978Z,42.60
2022-11-27T18:39:09.441Z,42.50
2022-11-27T18:41:35.918Z,42.90
2022-11-27T18:44:02.409Z,42.60
2022-11-27T18:46:28.932Z,42.70
2022-11-27T18:48:55.449Z,42.00
2022-11-27T18:51:21.873Z,42.60
2022-11-27T18:53:48.311Z,42.40
2022-11-27T18:56:14.781Z,42.30
2022-11-27T18:58:41.266Z,42.20
2022-11-27T19:01:07.754Z,41.50
2022-11-27T19:03:35.958Z,41.90
2022-11-27T19:06:05.314Z,41.90
2022-11-27T19:08:31.748Z,41.90
2022-11-27T19:10:58.230Z,41.70
2022-11-27T19:13:24.700Z,41.60
2022-11-27T19:15:51.204Z,41.80
2022-11-27T19:18:17.649Z,41.40
2022-11-27T19:20:44.126Z,41.90
2022-11-27T19:23:10.597Z,41.80
2022-11-27T19:25:37.040Z,42.20
2022-11-27T19:28:03.479Z,42.20
2022-11-27T19:30:33.941Z,42.20
2022-11-27T19:33:00.624Z,42.40
2022-11-27T19:35:27.074Z,42.40
2022-11-27T19:37:53.562Z,42.40
2022-11-27T19:40:19.999Z,42.60
2022-11-27T19:42:46.452Z,42.50
2022-11-27T19:45:12.912Z,42.60
2022-11-27T19:47:39.409Z,42.20
2022-11-27T19:50:05.868Z,42.70
2022-11-27T19:52:32.338Z,42.70
2022-11-27T19:54:58.823Z,42.70
2022-11-27T19:57:25.252Z,42.80
2022-11-27T19:59:51.723Z,42.90
2022-11-27T20:02:18.252Z,42.90
2022-11-27T20:04:44.780Z,43.00
2022-11-27T20:07:11.344Z,43.00
2022-11-27T20:09:37.912Z,43.10
2022-11-27T20:12:04.405Z,43.00
2022-11-27T20:14:30.826Z,43.10
2022-11-27T20:16:57.303Z,43.10
2022-11-27T20:19:23.773Z,42.40
2022-11-27T20:21:50.243Z,43.20
2022-11-27T20:24:16.675Z,43.20
2022-11-27T20:26:43.370Z,43.10
2022-11-27T20:29:09.938Z,42.50
2022-11-27T20:31:36.491Z,43.10
2022-11-27T20:34:03.005Z,43.10
2022-11-27T20:36:29.489Z,43.00
2022-11-27T20:38:55.919Z,43.00
2022-11-27T20:41:22.341Z,43.10
2022-11-27T20:43:48.763Z,43.10
2022-11-27T20:46:15.259Z,42.70
2022-11-27T20:48:41.803Z,43.20
2022-11-27T20:51:08.294Z,43.10
2022-11-27T20:53:34.757Z,43.10
2022-11-27T20:56:01.185Z,43.10
2022-11-27T20:58:27.657Z,43.20
2022-11-27T21:00:54.104Z,42.40
2022-11-27T21:03:20.570Z,42.50
2022-11-27T21:05:47.045Z,42.50
2022-11-27T21:08:13.482Z,43.00
2022-11-27T21:10:39.938Z,43.00
2022-11-27T21:13:06.358Z,43.00
2022-11-27T21:15:32.854Z,43.10
2022-11-27T21:17:59.338Z,43.10
2022-11-27T21:20:25.767Z,42.60
2022-11-27T21:22:53.620Z,42.80
2022-11-27T21:25:25.139Z,43.30
2022-11-27T21:27:51.994Z,42.70
2022-11-27T21:30:18.422Z,43.30
2022-11-27T21:32:44.870Z,43.20
2022-11-27T21:35:11.325Z,43.20
2022-11-27T21:37:37.750Z,43.20
2022-11-27T21:40:04.222Z,43.10
2022-11-27T21:42:30.685Z,43.20
2022-11-27T21:44:57.176Z,43.10
2022-11-27T21:47:23.603Z,43.10
2022-11-27T21:49:50.039Z,43.10
2022-11-27T21:52:16.454Z,43.10
2022-11-27T21:54:43.074Z,43.10
2022-11-27T21:57:09.662Z,43.20
2022-11-27T21:59:36.117Z,43.30
2022-11-27T22:02:02.587Z,43.20
2022-11-27T22:04:29.034Z,43.30
2022-11-27T22:06:55.451Z,43.30
2022-11-27T22:09:21.869Z,42.90
2022-11-27T22:11:48.319Z,43.40
2022-11-27T22:14:14.781Z,43.40
2022-11-27T22:16:45.224Z,43.40
2022-11-27T22:19:12.754Z,42.90
2022-11-27T22:21:39.174Z,43.50
2022-11-27T22:24:05.645Z,43.40
2022-11-27T22:26:32.070Z,43.40
2022-11-27T22:28:58.561Z,42.80
2022-11-27T22:31:25.091Z,43.30
2022-11-27T22:33:51.550Z,43.30
2022-11-27T22:36:17.998Z,43.30
2022-11-27T22:38:46.379Z,43.20
2022-11-27T22:41:12.823Z,43.30
2022-11-27T22:43:39.288Z,43.00
2022-11-27T22:46:05.843Z,43.50
2022-11-27T22:48:32.432Z,43.40
2022-11-27T22:50:58.879Z,43.40
2022-11-27T22:53:25.307Z,43.80
2022-11-27T22:55:51.795Z,43.90
2022-11-27T22:58:18.268Z,43.90
2022-11-27T23:00:44.741Z,43.50
2022-11-27T23:03:11.327Z,44.10
2022-11-27T23:05:37.854Z,44.10
2022-11-27T23:08:04.307Z,44.20
2022-11-27T23:10:30.802Z,44.10
2022-11-27T23:12:57.243Z,44.10
2022-11-27T23:15:23.709Z,44.10
2022-11-27T23:17:50.161Z,44.20
2022-11-27T23:20:16.626Z,44.10
2022-11-27T23:22:43.047Z,44.10
2022-11-27T23:25:09.470Z,44.00
2022-11-27T23:27:35.910Z,44.00
2022-11-27T23:30:02.367Z,43.40
2022-11-27T23:32:28.845Z,44.00
2022-11-27T23:34:55.322Z,43.90
2022-11-27T23:37:21.796Z,43.90
2022-11-27T23:39:48.260Z,43.30
2022-11-27T23:42:14.682Z,43.90
2022-11-27T23:44:41.362Z,43.90
2022-11-27T23:47:08.063Z,43.80
2022-11-27T23:49:34.530Z,43.80
2022-11-27T23:52:01.014Z,43.90
2022-11-27T23:54:27.449Z,43.80
2022-11-27T23:56:53.875Z,43.80
2022-11-27T23:59:20.347Z,43.30
